Time;durP1;ratioP1;P1;durP2;ratioP2;P2;SDS_P1;SDS_P2;PMS_P1;PMS_P2;Temp;Humidity;BMP_temperature;BMP_pressure;BME280_temperature;BME280_humidity;BME280_pressure;Samples;Min_cycle;Max_cycle;Signal;HPM_P1;HPM_P2
2022/03/07 00:06:10;;;;;;;4.40;1.08;;;3.00;99.90;;;;;;20446093;28;20554;-46
2022/03/07 00:16:12;;;;;;;2.17;0.80;;;2.80;99.90;;;;;;20441310;28;20038;-45
2022/03/07 00:26:13;;;;;;;2.78;1.40;;;2.50;99.90;;;;;;20441451;28;20521;-46
2022/03/07 00:36:15;;;;;;;2.42;0.98;;;2.30;99.90;;;;;;20436363;28;20051;-46
2022/03/07 00:46:16;;;;;;;4.35;1.23;;;2.20;99.90;;;;;;20440817;28;20047;-45
2022/03/07 00:56:17;;;;;;;3.38;1.38;;;2.10;99.90;;;;;;20436520;28;20053;-45
2022/03/07 01:06:18;;;;;;;3.13;1.13;;;1.90;99.90;;;;;;20429717;28;20053;-45
2022/03/07 01:16:19;;;;;;;3.75;1.45;;;1.90;99.90;;;;;;20429209;28;20050;-45
2022/03/07 01:26:21;;;;;;;4.07;1.70;;;1.80;99.90;;;;;;20432780;28;20411;-45
2022/03/07 01:36:22;;;;;;;4.22;1.50;;;1.70;99.90;;;;;;20428204;28;20043;-45
2022/03/07 01:46:24;;;;;;;3.60;1.30;;;1.60;99.90;;;;;;20449903;28;20042;-45
2022/03/07 01:56:25;;;;;;;2.25;0.82;;;1.70;99.90;;;;;;20453999;28;20106;-45
2022/03/07 02:06:28;;;;;;;5.82;1.42;;;1.80;99.90;;;;;;20442798;28;22346;-46
2022/03/07 02:16:29;;;;;;;4.85;1.70;;;1.70;99.90;;;;;;20419395;28;20401;-45
2022/03/07 02:26:30;;;;;;;3.58;1.70;;;1.70;99.90;;;;;;20423211;28;20051;-45
2022/03/07 02:36:31;;;;;;;3.55;1.20;;;1.80;99.90;;;;;;20424134;28;20281;-45
2022/03/07 02:46:33;;;;;;;3.95;1.60;;;1.90;99.90;;;;;;20421190;28;20399;-45
2022/03/07 02:56:35;;;;;;;5.15;1.05;;;1.70;99.90;;;;;;20411788;28;20035;-45
2022/03/07 03:06:36;;;;;;;3.13;1.20;;;1.50;99.90;;;;;;20428539;28;20051;-45
2022/03/07 03:16:37;;;;;;;2.85;2.03;;;1.40;99.90;;;;;;20443487;28;20043;-45
2022/03/07 03:26:38;;;;;;;2.88;1.17;;;1.30;99.90;;;;;;20452306;28;20515;-45
2022/03/07 03:36:39;;;;;;;4.47;1.90;;;1.30;99.90;;;;;;20448834;28;22283;-45
2022/03/07 03:46:40;;;;;;;4.50;1.50;;;1.30;99.90;;;;;;20455866;28;20056;-45
2022/03/07 03:56:41;;;;;;;3.97;1.55;;;1.20;99.90;;;;;;20453326;28;21534;-45
2022/03/07 04:06:43;;;;;;;5.30;1.38;;;1.10;99.90;;;;;;20467402;28;20529;-45
2022/03/07 04:16:44;;;;;;;5.35;1.45;;;1.00;99.90;;;;;;20477934;28;20057;-45
2022/03/07 04:26:49;;;;;;;5.00;1.55;;;0.90;99.90;;;;;;20465983;28;20054;-45
2022/03/07 04:36:50;;;;;;;6.63;1.40;;;0.80;99.90;;;;;;20477589;28;20659;-45
2022/03/07 04:46:51;;;;;;;3.90;1.67;;;0.80;99.90;;;;;;20434008;28;20419;-46
2022/03/07 04:56:54;;;;;;;3.70;1.90;;;0.70;99.90;;;;;;20442227;28;20047;-45
2022/03/07 05:06:55;;;;;;;8.27;2.10;;;0.70;99.90;;;;;;20448844;28;20539;-45
2022/03/07 05:16:56;;;;;;;4.32;1.70;;;0.70;99.90;;;;;;20442654;28;20051;-45
2022/03/07 05:26:57;;;;;;;4.30;2.20;;;0.60;99.90;;;;;;20445047;28;20047;-45
2022/03/07 05:36:58;;;;;;;2.42;1.40;;;0.50;99.90;;;;;;20439773;28;20904;-45
2022/03/07 05:47:00;;;;;;;4.40;1.73;;;0.50;99.90;;;;;;20432200;28;20454;-45
2022/03/07 05:57:02;;;;;;;2.83;1.58;;;0.40;99.90;;;;;;20435328;28;20047;-45
2022/03/07 06:07:03;;;;;;;5.00;2.20;;;0.30;99.90;;;;;;20434312;28;20380;-45
2022/03/07 06:17:04;;;;;;;5.90;2.22;;;0.30;99.90;;;;;;20430372;28;20035;-45
2022/03/07 06:27:06;;;;;;;4.18;1.98;;;0.20;99.90;;;;;;20454264;28;20043;-45
2022/03/07 06:37:07;;;;;;;5.07;1.92;;;0.30;99.90;;;;;;20438096;28;20043;-45
2022/03/07 06:47:09;;;;;;;4.10;1.98;;;0.30;99.90;;;;;;20432978;28;20411;-45
2022/03/07 06:57:10;;;;;;;6.57;2.53;;;0.20;99.90;;;;;;20430218;28;20573;-45
2022/03/07 07:07:11;;;;;;;4.93;1.83;;;0.30;99.90;;;;;;20417969;28;20047;-45
2022/03/07 07:17:12;;;;;;;6.10;2.28;;;0.40;99.90;;;;;;20420067;28;20051;-45
2022/03/07 07:27:13;;;;;;;5.85;2.40;;;0.60;99.90;;;;;;20413760;28;20066;-45
2022/03/07 07:37:15;;;;;;;8.75;1.83;;;0.80;99.90;;;;;;20418144;28;20391;-45
2022/03/07 07:47:16;;;;;;;9.05;2.67;;;1.00;99.90;;;;;;20401566;28;20055;-46
2022/03/07 07:57:17;;;;;;;4.88;1.92;;;1.20;99.90;;;;;;20449813;28;20035;-46
2022/03/07 08:07:19;;;;;;;11.95;2.63;;;1.50;99.90;;;;;;20432908;28;20070;-45
2022/03/07 08:17:20;;;;;;;6.88;2.40;;;1.90;99.90;;;;;;20492807;28;20051;-45
2022/03/07 08:27:21;;;;;;;5.93;2.30;;;2.20;99.90;;;;;;20400571;28;20047;-46
2022/03/07 08:37:22;;;;;;;7.15;2.45;;;2.60;99.90;;;;;;20521817;28;20531;-45
2022/03/07 08:47:23;;;;;;;5.15;2.25;;;2.90;99.90;;;;;;20542672;28;20054;-46
2022/03/07 08:57:24;;;;;;;6.70;2.72;;;3.30;99.90;;;;;;20535253;28;20038;-46
2022/03/07 09:07:28;;;;;;;5.15;2.72;;;3.70;99.90;;;;;;20543933;28;20035;-46
2022/03/07 09:17:30;;;;;;;8.25;1.70;;;4.10;99.90;;;;;;20531622;28;20126;-46
2022/03/07 09:27:32;;;;;;;7.88;2.60;;;4.70;99.90;;;;;;20532480;28;20058;-46
2022/03/07 09:37:33;;;;;;;5.25;2.30;;;5.00;99.90;;;;;;20534633;28;20043;-46
2022/03/07 09:47:38;;;;;;;7.53;2.97;;;5.20;99.90;;;;;;20534181;28;20047;-46
2022/03/07 09:57:41;;;;;;;4.18;1.90;;;5.30;99.90;;;;;;20490535;28;20043;-46
2022/03/07 10:07:44;;;;;;;6.10;2.35;;;5.60;99.90;;;;;;20485027;28;20046;-46
2022/03/07 10:17:50;;;;;;;5.32;2.10;;;5.90;99.90;;;;;;20490684;28;20053;-46
2022/03/07 10:27:53;;;;;;;4.50;1.50;;;6.00;99.90;;;;;;20463965;28;20051;-46
2022/03/07 10:38:07;;;;;;;5.45;1.67;;;6.50;99.90;;;;;;20504756;28;20121;-46
2022/03/07 10:48:08;;;;;;;4.85;2.05;;;6.70;99.90;;;;;;20506963;28;20043;-46
2022/03/07 10:58:13;;;;;;;6.10;2.35;;;6.90;99.90;;;;;;20492226;28;20049;-46
2022/03/07 11:08:15;;;;;;;5.30;2.55;;;7.40;99.90;;;;;;20487540;28;20051;-46
2022/03/07 11:18:20;;;;;;;4.38;2.58;;;7.50;99.90;;;;;;20483423;28;20191;-47
2022/03/07 11:28:30;;;;;;;3.72;2.03;;;7.70;99.90;;;;;;20498173;28;20478;-46
2022/03/07 11:38:32;;;;;;;7.80;2.50;;;8.40;99.70;;;;;;20543110;28;20057;-46
2022/03/07 11:48:47;;;;;;;5.82;2.53;;;8.80;99.20;;;;;;20578738;28;20054;-46
2022/03/07 11:58:53;;;;;;;4.70;1.95;;;9.20;99.90;;;;;;20556654;28;20044;-46
2022/03/07 12:09:01;;;;;;;3.60;2.22;;;9.70;97.40;;;;;;20574164;28;20042;-46
2022/03/07 12:19:14;;;;;;;5.65;2.10;;;9.70;98.10;;;;;;20530269;28;20060;-46
2022/03/07 12:29:17;;;;;;;3.35;1.50;;;10.00;96.70;;;;;;20554092;28;20038;-46
2022/03/07 12:39:21;;;;;;;6.28;1.35;;;10.40;96.50;;;;;;20617787;28;20042;-46
2022/03/07 12:49:22;;;;;;;3.15;1.30;;;10.60;95.00;;;;;;20629869;28;20056;-47
2022/03/07 12:59:27;;;;;;;5.05;1.88;;;10.90;94.40;;;;;;20596031;28;20059;-47
2022/03/07 13:09:31;;;;;;;5.07;2.00;;;10.70;95.40;;;;;;20626055;28;20037;-47
2022/03/07 13:19:32;;;;;;;4.82;2.22;;;11.10;95.70;;;;;;20644211;28;20041;-47
2022/03/07 13:29:35;;;;;;;5.75;1.85;;;11.70;94.80;;;;;;20621827;28;20035;-48
2022/03/07 13:39:37;;;;;;;4.00;1.70;;;12.00;94.30;;;;;;20567649;28;21731;-47
2022/03/07 13:49:42;;;;;;;4.45;1.60;;;11.90;93.00;;;;;;20563590;28;20039;-47
2022/03/07 13:59:54;;;;;;;6.22;1.92;;;12.40;94.30;;;;;;20545772;28;20039;-47
2022/03/07 14:10:00;;;;;;;3.75;1.92;;;12.70;92.90;;;;;;20554937;28;20042;-46
2022/03/07 14:20:04;;;;;;;3.28;1.65;;;12.80;91.30;;;;;;20573976;28;20043;-46
2022/03/07 14:30:07;;;;;;;3.92;2.03;;;13.10;93.40;;;;;;20601574;28;20072;-47
2022/03/07 14:40:14;;;;;;;2.97;1.45;;;13.00;91.70;;;;;;20573211;28;24912;-47
2022/03/07 14:50:16;;;;;;;3.25;1.45;;;12.40;90.00;;;;;;20612432;28;20529;-47
2022/03/07 15:00:22;;;;;;;3.67;2.05;;;12.00;92.00;;;;;;20609441;28;20042;-47
2022/03/07 15:10:28;;;;;;;3.78;1.58;;;11.20;91.70;;;;;;20634520;28;20042;-47
2022/03/07 15:20:29;;;;;;;3.47;1.75;;;10.50;93.00;;;;;;20650141;28;20303;-47
2022/03/07 15:30:30;;;;;;;2.95;1.55;;;9.90;93.90;;;;;;20622304;28;20060;-47
2022/03/07 15:40:32;;;;;;;5.45;2.30;;;9.70;94.70;;;;;;20595536;28;20261;-47
2022/03/07 15:50:37;;;;;;;3.50;1.48;;;9.40;95.70;;;;;;20557716;28;20043;-47
2022/03/07 16:00:38;;;;;;;2.72;1.17;;;9.40;94.70;;;;;;20536396;28;20114;-47
2022/03/07 16:10:42;;;;;;;5.15;1.30;;;9.20;94.40;;;;;;20519144;28;20058;-47
2022/03/07 16:20:44;;;;;;;5.95;1.40;;;8.90;95.30;;;;;;20509698;28;20054;-47
2022/03/07 16:30:48;;;;;;;3.28;1.55;;;8.80;95.60;;;;;;20514220;28;20035;-47
2022/03/07 16:40:50;;;;;;;3.38;1.70;;;8.60;95.10;;;;;;20511477;28;22030;-47
2022/03/07 16:50:51;;;;;;;3.53;2.05;;;8.40;95.70;;;;;;20570410;28;20049;-47
2022/03/07 17:00:52;;;;;;;4.10;1.85;;;8.40;97.10;;;;;;20536701;28;20057;-47
2022/03/07 17:10:53;;;;;;;5.93;1.98;;;8.20;97.10;;;;;;20538053;28;20038;-46
2022/03/07 17:20:54;;;;;;;3.00;1.55;;;8.00;98.00;;;;;;20611571;28;20486;-47
2022/03/07 17:30:56;;;;;;;6.03;1.98;;;7.70;97.90;;;;;;20572901;28;20046;-47
2022/03/07 17:40:57;;;;;;;4.97;2.08;;;7.60;99.10;;;;;;20537649;28;20058;-47
2022/03/07 17:50:58;;;;;;;2.83;1.40;;;7.40;99.70;;;;;;20485246;28;20456;-47
2022/03/07 18:01:01;;;;;;;4.70;1.30;;;7.20;99.90;;;;;;20483058;28;20231;-47
2022/03/07 18:11:05;;;;;;;6.18;2.40;;;7.10;99.90;;;;;;20477740;28;20503;-47
2022/03/07 18:21:06;;;;;;;7.63;1.88;;;6.90;99.90;;;;;;20471963;28;20054;-47
2022/03/07 18:31:08;;;;;;;4.03;1.42;;;6.80;99.90;;;;;;20454971;28;20043;-46
2022/03/07 18:41:09;;;;;;;4.50;2.38;;;6.70;99.90;;;;;;20503046;28;20059;-47
2022/03/07 18:51:10;;;;;;;6.70;2.60;;;6.50;99.90;;;;;;20478892;28;20050;-47
2022/03/07 19:01:11;;;;;;;7.25;2.33;;;6.30;99.90;;;;;;20519442;28;20051;-46
2022/03/07 19:11:16;;;;;;;6.75;2.25;;;6.20;99.90;;;;;;20483517;28;20042;-47
2022/03/07 19:21:17;;;;;;;5.20;2.13;;;6.10;99.90;;;;;;20494244;28;20039;-46
2022/03/07 19:31:18;;;;;;;7.50;2.72;;;6.00;99.90;;;;;;20492448;28;20750;-47
2022/03/07 19:41:19;;;;;;;5.47;2.22;;;5.90;99.90;;;;;;20542383;28;20435;-46
2022/03/07 19:51:21;;;;;;;5.07;2.05;;;5.80;99.90;;;;;;20487216;28;20120;-47
2022/03/07 20:01:22;;;;;;;5.50;1.88;;;5.70;99.90;;;;;;20522492;28;20055;-47
2022/03/07 20:11:24;;;;;;;4.57;2.28;;;5.50;99.90;;;;;;20518201;28;20046;-47
2022/03/07 20:21:28;;;;;;;4.88;2.30;;;5.50;99.90;;;;;;20506640;28;20051;-47
2022/03/07 20:31:31;;;;;;;5.78;2.80;;;5.30;99.90;;;;;;20519605;28;20173;-47
2022/03/07 20:41:37;;;;;;;8.13;3.10;;;5.20;99.90;;;;;;20508524;28;20093;-47
2022/03/07 20:51:38;;;;;;;7.32;2.53;;;5.10;99.90;;;;;;20502691;28;20407;-46
2022/03/07 21:01:40;;;;;;;7.97;2.90;;;5.10;99.90;;;;;;20496892;28;20055;-46
2022/03/07 21:11:41;;;;;;;5.25;2.42;;;5.00;99.90;;;;;;20511268;28;20042;-47
2022/03/07 21:21:43;;;;;;;4.60;2.13;;;4.80;99.90;;;;;;20500576;28;20048;-46
2022/03/07 21:31:44;;;;;;;7.97;2.78;;;4.70;99.90;;;;;;20503231;28;20075;-46
2022/03/07 21:41:45;;;;;;;6.95;3.70;;;4.70;99.90;;;;;;20498055;28;20407;-47
2022/03/07 21:51:46;;;;;;;4.93;2.08;;;4.60;99.90;;;;;;20510121;28;20046;-46
2022/03/07 22:01:49;;;;;;;5.70;2.33;;;4.50;99.90;;;;;;20524540;28;20486;-47
2022/03/07 22:11:50;;;;;;;9.50;2.70;;;4.40;99.90;;;;;;20468773;28;20042;-54
2022/03/07 22:21:51;;;;;;;5.43;2.53;;;4.40;99.90;;;;;;20489458;28;20500;-46
2022/03/07 22:31:53;;;;;;;9.10;4.20;;;4.40;99.90;;;;;;20489426;28;20096;-46
2022/03/07 22:41:54;;;;;;;7.40;2.47;;;4.20;99.90;;;;;;20573358;28;20043;-47
2022/03/07 22:51:56;;;;;;;6.55;3.03;;;4.10;99.90;;;;;;20599681;28;20045;-46
2022/03/07 23:01:57;;;;;;;7.32;2.28;;;4.00;99.90;;;;;;20558167;28;20062;-46
2022/03/07 23:11:58;;;;;;;5.30;1.75;;;4.00;99.90;;;;;;20548234;28;20058;-47
2022/03/07 23:22:00;;;;;;;8.38;2.72;;;4.00;99.90;;;;;;20591814;28;20054;-47
2022/03/07 23:32:01;;;;;;;6.25;2.65;;;3.90;99.90;;;;;;20605982;28;20029;-47
2022/03/07 23:42:04;;;;;;;8.38;2.38;;;3.80;99.90;;;;;;20578172;28;20078;-46
2022/03/07 23:52:10;;;;;;;6.90;2.40;;;3.70;99.90;;;;;;20538170;28;20063;-47
